East Chicago, Indiana
Current Conditions -  °F | °C
As of 3:45 PM on Friday 31 Oct 2014 (Local Time) from KGYY Reporting Station
Moderate Rain Moderate Rain  
Wind Chill: 29°   Ceiling: 1200
Heat Index: 41°   Visibility: 5mi
Dew Point: 32°   Wind: 37mph
Humidity: 70%   Direction: 340°NNW
Pressure: 30.18"   Gusts: 67mph
Location:  41.63°N, 87.48°W
Report Text: KGYY 312045Z 34032G58KT 5SM RA OVC012 05/00 A3018
Loading
Personal Weather Stations






























Interactive Weather Map
Tropical Storm Tracking
New forecast layout! Learn more

10-Day Weather Forecast

Advertisements
Track Severe Weather on mobile